• Join FlightAware (Why Join?)
  • Login
  • US Flag 
09:30AM EDT


 

Airport Tracker/Info


-or-


 

Live Flight TrackerFlight Track Log ✈ N89KB ✈ 25-Aug-2013 ✈ KDNN - KGMU

Flight Track Log - Related Links

Times and Time Zones

All times are in EDT time to prevent confusion due to time zone crossing. See the N89KB flight status page for this flight to view local times or setup timezone preferences in your user account.

Time Position Orientation Groundspeed Altitude Reporting Facility
EDT Latitude Longitude Course Direction KTS MPH feet Rate Location/Type
04:39PM 34.6217 -84.5486 80° East 147 169 10,700  Level Atlanta Center
04:40PM 34.6261 -84.5033 83° East 137 158 11,000 120 Climbing Atlanta Center
04:41PM 34.6347 -84.4478 79° East 149 171 11,000  Level Atlanta Center
04:42PM 34.6389 -84.3897 85° East 156 180 11,000  Level Atlanta Center
04:43PM 34.6456 -84.3317 82° East 163 188 11,000  Level Atlanta Center
04:44PM 34.7306 -84.6190 80° East  Level FlightAware Approximate
04:44PM 34.6519 -84.2761 82° East 168 193 11,000  Level Atlanta Center
04:45PM 34.6581 -84.2231 82° East 168 193 11,000  Level Atlanta Center
04:46PM 34.6644 -84.1700 82° East 163 188 11,000  Level Atlanta Center
04:47PM 34.6708 -84.1144 82° East 163 188 11,000  Level Atlanta Center
04:48PM 34.6750 -84.0564 85° East 163 188 11,000  Level Atlanta Center
04:49PM 34.6814 -84.0008 82° East 163 188 11,000  Level Atlanta Center
04:50PM 34.6875 -83.9403 83° East 163 188 11,000 -180 Level Atlanta Center
04:51PM 34.6958 -83.8694 82° East 177 204 10,700 -420 Descending Atlanta Center
04:52PM 34.7019 -83.8114 83° East 184 212 10,200 -540 Descending Atlanta Center
04:53PM 34.7081 -83.7508 83° East 178 205 9,700 -540 Descending Atlanta Center
04:54PM 34.7142 -83.6950 82° East 178 205 9,200 -480 Descending Atlanta Center
04:55PM 34.7181 -83.6319 86° East 178 205 8,800 -480 Descending Atlanta Center
04:56PM 34.7264 -83.5789 79° East 173 199 8,300 -480 Descending Atlanta Center
04:57PM 34.7303 -83.5258 85° East 173 199 7,900 -420 Descending Atlanta Center
04:58PM 34.7364 -83.4725 82° East 173 199 7,500 -480 Descending Atlanta Center
04:59PM 34.7422 -83.4094 84° East 161 185 7,000 -300 Descending Atlanta Center
05:00PM 34.7483 -83.3561 82° East 161 185 6,900  Descending Atlanta Center
05:01PM 34.7522 -83.3056 85° East 150 173 7,000  Climbing Atlanta Center
05:02PM 34.7581 -83.2525 82° East 156 180 6,900  Descending Atlanta Center
05:03PM 34.7639 -83.1942 83° East 163 188 7,000  Climbing Atlanta Center
05:04PM 34.7697 -83.1386 83° East 163 188 7,000  Level Atlanta Center
05:05PM 34.7756 -83.0828 83° East 163 188 7,000 -60 Level Atlanta Center
05:06PM 34.7836 -83.0247 80° East 163 188 6,900  Descending Atlanta Center
05:07PM 34.7872 -82.9664 86° East 163 188 7,000  Climbing Atlanta Center
05:08PM 34.7950 -82.9081 81° East 158 182 6,900 -360 Descending Atlanta Center
05:09PM 34.7986 -82.8600 85° East 158 182 6,300 -600 Descending Atlanta Center
05:10PM 34.8022 -82.8069 85° East 158 182 5,700 -660 Descending Atlanta Center
05:11PM 34.8061 -82.7561 85° East 158 182 5,000 -360 Descending Atlanta Center
05:12PM 34.8139 -82.7056 79° East 158 182 5,000  Level Atlanta Center
05:13PM 34.8194 -82.6497 83° East 158 182 5,000  Level Atlanta Center
05:15PM 34.8333 -82.5733 90° East  Level FlightAware Approximate
05:22PM 34.8333 -82.3500 90° East  Level FlightAware Approximate
05:23PM 34.8479 -82.3500 90° East  Level Estimated
05:24PM 34.8479 -82.3500 90° East  Level Estimated
05:25PM 34.8479 -82.3500 90° East  Level Estimated
05:26PM 34.8479 -82.3500 90° East  Level Estimated
05:27PM 34.8479 -82.3500 90° East  Level Estimated
05:28PM 34.8479 -82.3500 90° East  Level Estimated